Time;durP1;ratioP1;P1;durP2;ratioP2;P2;SDS_P1;SDS_P2;PMS_P1;PMS_P2;Temp;Humidity;BMP_temperature;BMP_pressure;BME280_temperature;BME280_humidity;BME280_pressure;Samples;Min_cycle;Max_cycle;Signal;HPM_P1;HPM_P2
2024/03/08 00:00:12;;;;;;;25.00;8.40;;;-0.70;100.00;;;;;;5084636;28;20044;-72
2024/03/08 00:02:40;;;;;;;31.88;8.50;;;-0.70;100.00;;;;;;5076425;28;20057;-73
2024/03/08 00:05:08;;;;;;;22.73;8.18;;;-0.70;100.00;;;;;;5051855;28;20130;-72
2024/03/08 00:07:36;;;;;;;32.20;8.02;;;-0.80;100.00;;;;;;5079585;28;20587;-72
2024/03/08 00:10:04;;;;;;;30.92;8.20;;;-0.80;100.00;;;;;;5058154;28;20141;-72
2024/03/08 00:12:31;;;;;;;28.98;8.43;;;-0.80;100.00;;;;;;5063246;28;20916;-72
2024/03/08 00:14:58;;;;;;;23.27;8.82;;;-0.80;100.00;;;;;;5055511;28;20086;-72
2024/03/08 00:17:27;;;;;;;24.90;9.25;;;-0.80;100.00;;;;;;5076691;28;20541;-72
2024/03/08 00:19:54;;;;;;;23.23;7.78;;;-0.80;100.00;;;;;;5073274;28;20109;-72
2024/03/08 00:22:22;;;;;;;25.65;7.55;;;-0.80;100.00;;;;;;5084240;28;20075;-73
2024/03/08 00:24:51;;;;;;;36.38;10.60;;;-0.70;100.00;;;;;;5061118;28;20127;-73
2024/03/08 00:27:20;;;;;;;39.63;8.75;;;-0.70;100.00;;;;;;5071166;28;20051;-73
2024/03/08 00:29:48;;;;;;;23.38;8.95;;;-0.60;100.00;;;;;;5083772;28;20052;-72
2024/03/08 00:32:15;;;;;;;29.10;9.50;;;-0.50;100.00;;;;;;5062380;28;20114;-72
2024/03/08 00:34:41;;;;;;;39.05;9.60;;;-0.40;100.00;;;;;;5071780;28;20113;-72
2024/03/08 00:37:08;;;;;;;32.42;9.48;;;-0.40;100.00;;;;;;5074317;28;20146;-73
2024/03/08 00:39:35;;;;;;;28.73;10.30;;;-0.30;100.00;;;;;;5086952;28;20815;-73
2024/03/08 00:42:03;;;;;;;40.78;10.88;;;-0.20;100.00;;;;;;5064731;28;20079;-73
2024/03/08 00:44:30;;;;;;;30.77;10.27;;;-0.20;100.00;;;;;;5054839;28;20752;-73
2024/03/08 00:46:58;;;;;;;26.25;9.13;;;-0.10;100.00;;;;;;5075974;28;20048;-72
2024/03/08 00:49:25;;;;;;;34.55;10.57;;;-0.10;100.00;;;;;;5084225;28;20044;-72
2024/03/08 00:51:52;;;;;;;37.47;10.35;;;0.00;100.00;;;;;;5080185;28;20052;-72
2024/03/08 00:54:19;;;;;;;37.63;11.52;;;0.00;100.00;;;;;;5057029;28;20540;-72
2024/03/08 00:56:45;;;;;;;30.65;9.75;;;0.00;100.00;;;;;;5073484;28;20512;-72
2024/03/08 00:59:14;;;;;;;44.78;10.90;;;0.00;100.00;;;;;;5075543;28;20051;-72
2024/03/08 01:01:41;;;;;;;36.85;10.45;;;0.00;100.00;;;;;;5059255;28;20047;-72
2024/03/08 01:04:08;;;;;;;30.88;9.38;;;0.00;100.00;;;;;;5075809;28;20052;-72
2024/03/08 01:06:34;;;;;;;31.80;11.15;;;0.00;100.00;;;;;;5062995;28;20606;-73
2024/03/08 01:09:02;;;;;;;26.48;9.68;;;0.00;100.00;;;;;;5062265;28;20125;-73
2024/03/08 01:11:28;;;;;;;32.55;10.98;;;0.10;100.00;;;;;;5082347;28;20048;-72
2024/03/08 01:13:55;;;;;;;31.73;10.07;;;0.10;100.00;;;;;;5083247;28;20073;-73
2024/03/08 01:16:22;;;;;;;28.77;10.70;;;0.10;100.00;;;;;;5074649;28;20052;-73
2024/03/08 01:18:50;;;;;;;33.53;11.00;;;0.10;100.00;;;;;;5084477;28;20059;-73
2024/03/08 01:21:17;;;;;;;31.42;10.05;;;0.20;100.00;;;;;;5093598;28;20209;-73
2024/03/08 01:23:44;;;;;;;38.53;11.70;;;0.20;100.00;;;;;;5083156;28;20522;-73
2024/03/08 01:26:11;;;;;;;30.73;11.32;;;0.20;100.00;;;;;;5054209;28;20047;-73
2024/03/08 01:28:38;;;;;;;35.63;11.73;;;0.20;100.00;;;;;;5077657;28;20492;-73
2024/03/08 01:31:05;;;;;;;47.92;11.95;;;0.30;100.00;;;;;;5074663;28;20065;-73
2024/03/08 01:33:32;;;;;;;36.67;11.07;;;0.30;100.00;;;;;;5077347;28;20145;-73
2024/03/08 01:35:59;;;;;;;29.40;10.65;;;0.30;100.00;;;;;;5083516;28;20054;-73
2024/03/08 01:38:26;;;;;;;35.83;11.13;;;0.30;100.00;;;;;;5083958;28;20048;-72
2024/03/08 01:40:53;;;;;;;36.55;11.07;;;0.30;100.00;;;;;;5053298;28;20603;-72
2024/03/08 01:43:20;;;;;;;35.75;10.63;;;0.40;100.00;;;;;;5081738;28;20091;-72
2024/03/08 01:45:48;;;;;;;38.08;11.40;;;0.40;100.00;;;;;;5059922;28;20117;-72
2024/03/08 01:48:17;;;;;;;44.60;10.60;;;0.40;100.00;;;;;;5076334;28;20148;-72
2024/03/08 01:50:45;;;;;;;27.58;9.93;;;0.40;100.00;;;;;;5083226;28;20052;-73
2024/03/08 01:53:15;;;;;;;34.75;10.07;;;0.40;100.00;;;;;;5078816;28;20052;-72
2024/03/08 01:55:43;;;;;;;37.33;11.23;;;0.40;100.00;;;;;;5064001;28;20062;-72
2024/03/08 01:58:11;;;;;;;32.58;10.57;;;0.40;100.00;;;;;;5054049;28;20602;-72
2024/03/08 02:00:40;;;;;;;38.65;10.27;;;0.40;100.00;;;;;;5081869;28;20055;-72
2024/03/08 02:03:07;;;;;;;31.88;10.85;;;0.40;100.00;;;;;;5061522;28;20052;-73
2024/03/08 02:05:34;;;;;;;51.65;12.32;;;0.50;100.00;;;;;;5080896;28;20079;-73
2024/03/08 02:08:02;;;;;;;51.38;11.68;;;0.50;100.00;;;;;;5079875;28;20048;-73
2024/03/08 02:10:30;;;;;;;55.30;11.70;;;0.50;100.00;;;;;;5061146;28;20167;-73
2024/03/08 02:12:57;;;;;;;42.25;12.82;;;0.50;100.00;;;;;;5075767;28;20109;-73
2024/03/08 02:15:23;;;;;;;40.10;11.15;;;0.50;100.00;;;;;;5077258;28;20044;-72
2024/03/08 02:17:50;;;;;;;42.28;12.48;;;0.50;100.00;;;;;;5072277;28;20139;-72
2024/03/08 02:20:19;;;;;;;53.22;11.65;;;0.50;100.00;;;;;;5063631;28;20113;-72
2024/03/08 02:22:46;;;;;;;40.67;12.43;;;0.50;100.00;;;;;;5080554;28;20079;-73
2024/03/08 02:25:13;;;;;;;39.90;12.68;;;0.50;100.00;;;;;;5058433;28;20048;-73
2024/03/08 02:27:39;;;;;;;47.55;12.43;;;0.60;100.00;;;;;;5052835;28;20049;-73
2024/03/08 02:30:07;;;;;;;52.30;14.05;;;0.60;100.00;;;;;;5083000;28;20066;-72
2024/03/08 02:32:34;;;;;;;46.15;13.23;;;0.60;100.00;;;;;;5075059;28;20052;-73
2024/03/08 02:35:01;;;;;;;50.20;13.73;;;0.60;100.00;;;;;;5058723;28;20048;-73
2024/03/08 02:37:28;;;;;;;54.28;15.30;;;0.60;100.00;;;;;;5081214;28;20087;-73
2024/03/08 02:39:55;;;;;;;51.40;14.30;;;0.50;100.00;;;;;;5079092;28;20052;-72
2024/03/08 02:42:22;;;;;;;56.90;15.13;;;0.50;100.00;;;;;;5078901;28;20056;-72
2024/03/08 02:44:49;;;;;;;56.85;14.45;;;0.50;100.00;;;;;;5082276;28;20611;-72
2024/03/08 02:47:16;;;;;;;64.85;16.35;;;0.50;100.00;;;;;;5063079;28;20107;-72
2024/03/08 02:49:43;;;;;;;71.18;16.77;;;0.40;100.00;;;;;;5054372;28;20129;-72
2024/03/08 02:52:11;;;;;;;57.55;15.15;;;0.40;100.00;;;;;;5076953;28;20048;-73
2024/03/08 02:54:38;;;;;;;54.28;15.63;;;0.40;100.00;;;;;;5059942;28;20432;-72
2024/03/08 02:57:07;;;;;;;90.40;16.10;;;0.50;100.00;;;;;;5062117;28;20052;-72
2024/03/08 02:59:34;;;;;;;49.17;14.27;;;0.50;100.00;;;;;;5062524;28;20084;-72
2024/03/08 03:02:01;;;;;;;71.90;16.25;;;0.50;100.00;;;;;;5070897;28;20377;-73
2024/03/08 03:04:28;;;;;;;72.13;17.83;;;0.50;100.00;;;;;;5078211;28;20693;-72
2024/03/08 03:06:55;;;;;;;66.13;16.00;;;0.50;100.00;;;;;;5076575;28;20512;-72
2024/03/08 03:09:23;;;;;;;49.30;14.85;;;0.40;100.00;;;;;;5072700;28;20121;-72
2024/03/08 03:11:50;;;;;;;57.72;16.55;;;0.40;100.00;;;;;;5085757;28;20228;-72
2024/03/08 03:14:17;;;;;;;73.13;16.83;;;0.40;100.00;;;;;;5081686;28;20091;-72
2024/03/08 03:16:45;;;;;;;60.90;15.50;;;0.40;100.00;;;;;;5081689;28;20575;-72
2024/03/08 03:19:12;;;;;;;56.25;15.50;;;0.40;100.00;;;;;;5071964;28;20056;-72
2024/03/08 03:21:39;;;;;;;82.32;17.98;;;0.40;100.00;;;;;;5082973;28;20055;-72
2024/03/08 03:24:09;;;;;;;65.15;17.25;;;0.40;100.00;;;;;;5078067;28;20053;-73
2024/03/08 03:26:41;;;;;;;49.88;15.90;;;0.40;100.00;;;;;;5075043;28;20049;-72
2024/03/08 03:29:08;;;;;;;77.60;17.45;;;0.30;100.00;;;;;;5082591;28;20163;-72
2024/03/08 03:31:36;;;;;;;67.63;17.00;;;0.40;100.00;;;;;;5072632;28;20544;-72
2024/03/08 03:34:03;;;;;;;58.05;17.17;;;0.30;100.00;;;;;;5077585;28;20052;-72
2024/03/08 03:36:31;;;;;;;59.28;16.88;;;0.30;100.00;;;;;;5060500;28;20167;-72
2024/03/08 03:39:16;;;;;;;65.15;16.20;;;0.30;100.00;;;;;;5058148;28;20090;-72
2024/03/08 03:41:46;;;;;;;60.13;15.48;;;0.20;100.00;;;;;;5061053;28;20575;-72
2024/03/08 03:44:13;;;;;;;68.32;17.30;;;0.30;100.00;;;;;;5073881;28;20048;-72
2024/03/08 03:46:44;;;;;;;71.32;17.67;;;0.30;100.00;;;;;;5064972;28;20076;-72
2024/03/08 03:49:10;;;;;;;71.15;17.42;;;0.30;100.00;;;;;;5084714;28;20048;-72
2024/03/08 03:51:37;;;;;;;62.55;17.50;;;0.30;100.00;;;;;;5083463;28;20150;-72
2024/03/08 03:54:04;;;;;;;71.40;17.08;;;0.30;100.00;;;;;;5081316;28;20051;-72
2024/03/08 03:56:31;;;;;;;58.03;16.27;;;0.30;100.00;;;;;;5076704;28;20098;-72
2024/03/08 03:58:58;;;;;;;53.30;15.75;;;0.30;100.00;;;;;;5078561;28;20145;-72
2024/03/08 04:01:25;;;;;;;69.57;15.27;;;0.30;100.00;;;;;;5083678;28;20051;-72
2024/03/08 04:03:52;;;;;;;71.28;17.23;;;0.20;100.00;;;;;;5071507;28;20515;-72
2024/03/08 04:06:18;;;;;;;94.72;17.58;;;0.20;100.00;;;;;;5078643;28;20044;-72
2024/03/08 04:08:46;;;;;;;65.38;18.33;;;0.20;100.00;;;;;;5078011;28;20051;-72
2024/03/08 04:11:13;;;;;;;71.80;16.42;;;0.20;100.00;;;;;;5084532;28;20047;-72
2024/03/08 04:13:39;;;;;;;52.70;16.27;;;0.20;100.00;;;;;;5073274;28;20121;-72
2024/03/08 04:16:07;;;;;;;57.70;16.52;;;0.20;100.00;;;;;;5073674;28;20056;-72
2024/03/08 04:18:37;;;;;;;57.53;17.35;;;0.20;100.00;;;;;;5056710;28;20056;-72
2024/03/08 04:21:08;;;;;;;55.97;15.77;;;0.20;100.00;;;;;;5080191;28;20052;-72
2024/03/08 04:23:35;;;;;;;52.03;14.48;;;0.20;100.00;;;;;;5076357;28;20063;-72
2024/03/08 04:26:04;;;;;;;52.90;16.02;;;0.10;100.00;;;;;;5083750;28;20055;-72
2024/03/08 04:28:31;;;;;;;47.92;15.43;;;0.10;100.00;;;;;;5060088;28;20544;-72
2024/03/08 04:31:00;;;;;;;57.15;16.77;;;0.10;100.00;;;;;;5060735;28;20044;-72
2024/03/08 04:33:27;;;;;;;61.42;15.02;;;0.10;100.00;;;;;;5058985;28;20136;-72
2024/03/08 04:35:55;;;;;;;63.30;14.05;;;0.10;100.00;;;;;;5073898;28;20634;-72
2024/03/08 04:38:22;;;;;;;52.65;15.88;;;0.10;100.00;;;;;;5063861;28;20044;-72
2024/03/08 04:40:49;;;;;;;83.05;15.75;;;0.00;100.00;;;;;;5060963;28;20164;-72
2024/03/08 04:43:18;;;;;;;76.93;16.35;;;0.10;100.00;;;;;;5052853;28;20061;-72
2024/03/08 04:45:45;;;;;;;57.22;14.57;;;0.00;100.00;;;;;;5085454;28;20716;-73
2024/03/08 04:48:12;;;;;;;70.80;14.98;;;0.00;100.00;;;;;;5073940;28;20048;-72
2024/03/08 04:50:39;;;;;;;65.50;16.10;;;0.00;100.00;;;;;;5070690;28;20044;-72
2024/03/08 04:53:07;;;;;;;61.97;16.85;;;0.00;100.00;;;;;;5075716;28;20121;-73
2024/03/08 04:55:35;;;;;;;60.55;15.32;;;0.00;100.00;;;;;;5072124;28;20143;-73
2024/03/08 04:58:04;;;;;;;57.53;16.98;;;0.00;100.00;;;;;;5073026;28;20052;-72
2024/03/08 05:00:31;;;;;;;51.70;14.60;;;0.00;100.00;;;;;;5073880;28;20697;-73
2024/03/08 05:02:58;;;;;;;87.53;15.68;;;-0.10;100.00;;;;;;5078655;28;20050;-72
2024/03/08 05:05:28;;;;;;;83.65;15.07;;;-0.10;100.00;;;;;;5055665;28;20051;-72
2024/03/08 05:07:55;;;;;;;73.35;14.63;;;-0.10;100.00;;;;;;5059626;28;20044;-72
2024/03/08 05:10:22;;;;;;;71.95;15.95;;;-0.10;100.00;;;;;;5061200;28;20048;-72
2024/03/08 05:12:48;;;;;;;81.45;14.63;;;-0.10;100.00;;;;;;5077836;28;20109;-72
2024/03/08 05:15:16;;;;;;;66.22;16.20;;;-0.20;100.00;;;;;;5071515;28;20173;-72
2024/03/08 05:17:43;;;;;;;54.80;15.50;;;-0.20;100.00;;;;;;5074746;28;20051;-72
2024/03/08 05:20:12;;;;;;;70.38;16.10;;;-0.20;100.00;;;;;;5071217;28;20075;-72
2024/03/08 05:22:40;;;;;;;61.45;15.00;;;-0.20;100.00;;;;;;5060648;28;20072;-72
2024/03/08 05:25:10;;;;;;;61.67;16.58;;;-0.20;100.00;;;;;;5080589;28;20044;-73
2024/03/08 05:27:37;;;;;;;64.53;14.70;;;-0.20;100.00;;;;;;5072366;28;20837;-72
2024/03/08 05:30:05;;;;;;;63.05;15.10;;;-0.20;100.00;;;;;;5082386;28;20670;-73
2024/03/08 05:32:32;;;;;;;56.95;16.02;;;-0.20;100.00;;;;;;5082273;28;20051;-72
2024/03/08 05:34:59;;;;;;;127.88;18.38;;;-0.20;100.00;;;;;;5081593;28;20044;-72
2024/03/08 05:37:26;;;;;;;76.13;16.95;;;-0.10;100.00;;;;;;5075886;28;20110;-72
2024/03/08 05:39:54;;;;;;;50.03;15.55;;;-0.20;100.00;;;;;;5075548;28;20056;-72
2024/03/08 05:42:20;;;;;;;57.95;15.50;;;-0.30;100.00;;;;;;5073592;28;20131;-75
2024/03/08 05:44:47;;;;;;;123.68;18.48;;;-0.30;100.00;;;;;;5081397;28;20067;-73
2024/03/08 05:47:15;;;;;;;59.67;16.08;;;-0.30;100.00;;;;;;5061484;28;20131;-73
2024/03/08 05:49:44;;;;;;;76.53;17.02;;;-0.30;100.00;;;;;;5073624;28;20129;-73
2024/03/08 05:52:11;;;;;;;63.70;17.13;;;-0.20;100.00;;;;;;5081178;28;20071;-73
2024/03/08 05:54:37;;;;;;;50.83;16.17;;;-0.30;100.00;;;;;;5075821;28;20051;-73
2024/03/08 05:57:04;;;;;;;52.25;16.00;;;-0.30;100.00;;;;;;5054244;28;20087;-73
2024/03/08 05:59:31;;;;;;;67.00;16.23;;;-0.20;100.00;;;;;;5061722;28;20055;-73
2024/03/08 06:01:58;;;;;;;78.00;18.48;;;-0.20;100.00;;;;;;5074395;28;20052;-73
2024/03/08 06:04:25;;;;;;;72.72;17.33;;;-0.20;100.00;;;;;;5078176;28;20052;-73
2024/03/08 06:06:55;;;;;;;63.30;16.58;;;-0.20;100.00;;;;;;5061681;28;20399;-73
2024/03/08 06:09:23;;;;;;;59.03;17.25;;;-0.20;100.00;;;;;;5059754;28;20039;-73
2024/03/08 06:11:54;;;;;;;60.10;17.00;;;-0.10;100.00;;;;;;5063317;28;20639;-73
2024/03/08 06:14:23;;;;;;;57.95;16.45;;;-0.10;100.00;;;;;;5076688;28;20105;-73
2024/03/08 06:16:50;;;;;;;57.88;16.85;;;-0.10;100.00;;;;;;5082358;28;20056;-73
2024/03/08 06:19:17;;;;;;;54.90;17.80;;;-0.10;100.00;;;;;;5078214;28;20048;-73
2024/03/08 06:21:44;;;;;;;74.38;18.98;;;0.00;100.00;;;;;;5064396;28;20056;-73
2024/03/08 06:24:10;;;;;;;54.75;16.23;;;0.00;100.00;;;;;;5080783;28;20144;-73
2024/03/08 06:26:37;;;;;;;49.25;15.48;;;-0.10;100.00;;;;;;5082240;28;20045;-73
2024/03/08 06:29:08;;;;;;;75.05;16.65;;;-0.10;100.00;;;;;;5069767;28;20045;-73
2024/03/08 06:31:38;;;;;;;61.63;17.85;;;-0.10;100.00;;;;;;5065540;28;20083;-73
2024/03/08 06:34:07;;;;;;;55.45;16.98;;;0.00;100.00;;;;;;5079946;28;20724;-73
2024/03/08 06:36:37;;;;;;;59.22;17.67;;;0.00;100.00;;;;;;5082071;28;20106;-73
2024/03/08 06:39:08;;;;;;;87.57;18.35;;;0.00;100.00;;;;;;5054735;28;20101;-73
2024/03/08 06:41:44;;;;;;;68.70;18.83;;;0.00;100.00;;;;;;5056412;28;20161;-74
2024/03/08 06:44:11;;;;;;;62.15;18.30;;;0.00;100.00;;;;;;5061908;28;20396;-73
2024/03/08 06:46:38;;;;;;;67.65;16.80;;;0.00;100.00;;;;;;5063887;28;20048;-73
2024/03/08 06:49:07;;;;;;;52.47;17.00;;;0.00;100.00;;;;;;5082171;28;20400;-73
2024/03/08 06:51:58;;;;;;;68.28;20.73;;;0.00;100.00;;;;;;5065024;28;20044;-73
2024/03/08 06:54:25;;;;;;;80.07;21.55;;;0.00;100.00;;;;;;5085629;28;20087;-73
2024/03/08 06:56:52;;;;;;;68.80;22.05;;;0.00;100.00;;;;;;5082557;28;20044;-77
2024/03/08 06:59:19;;;;;;;83.35;22.13;;;0.00;100.00;;;;;;5083743;28;20055;-77
2024/03/08 07:01:46;;;;;;;92.95;23.75;;;0.10;100.00;;;;;;5065040;28;20801;-77
2024/03/08 07:04:13;;;;;;;107.47;26.45;;;0.10;100.00;;;;;;5088956;28;20052;-77
2024/03/08 07:06:40;;;;;;;103.45;25.88;;;0.20;100.00;;;;;;5083459;28;20053;-77
2024/03/08 07:09:07;;;;;;;107.30;26.83;;;0.20;100.00;;;;;;5064311;28;20123;-75
2024/03/08 07:11:34;;;;;;;112.65;27.50;;;0.30;100.00;;;;;;5078801;28;20738;-76
2024/03/08 07:14:05;;;;;;;98.78;26.48;;;0.40;100.00;;;;;;5070447;28;20048;-73
2024/03/08 07:16:32;;;;;;;108.72;25.15;;;0.50;100.00;;;;;;5081381;28;20690;-75
2024/03/08 07:18:59;;;;;;;98.03;27.05;;;0.60;100.00;;;;;;5075310;28;20129;-76
2024/03/08 07:21:26;;;;;;;97.80;25.40;;;0.60;100.00;;;;;;5080617;28;20043;-74
2024/03/08 07:24:27;;;;;;;100.72;26.88;;;0.60;100.00;;;;;;5055374;28;20210;-72
2024/03/08 07:26:40;;;;;;;91.85;22.60;;;0.70;100.00;;;;;;5081295;28;20044;-73
2024/03/08 07:29:07;;;;;;;92.00;22.08;;;0.60;100.00;;;;;;5067189;28;20396;-77
2024/03/08 07:31:45;;;;;;;94.85;24.80;;;0.60;100.00;;;;;;5064089;28;20048;-73
2024/03/08 07:34:12;;;;;;;73.68;23.88;;;0.70;100.00;;;;;;5075890;28;20098;-73
2024/03/08 07:36:39;;;;;;;94.35;23.42;;;0.80;100.00;;;;;;5081540;28;20548;-72
2024/03/08 07:39:11;;;;;;;85.47;23.55;;;0.80;100.00;;;;;;5058325;28;20497;-77
2024/03/08 07:41:40;;;;;;;78.30;22.25;;;0.90;100.00;;;;;;5080027;28;20881;-77
2024/03/08 07:44:07;;;;;;;83.72;23.08;;;1.00;100.00;;;;;;5065544;28;20080;-77
2024/03/08 07:46:34;;;;;;;88.30;22.63;;;1.10;100.00;;;;;;5084546;28;20102;-79
2024/03/08 07:49:02;;;;;;;84.85;22.75;;;1.20;100.00;;;;;;5085359;28;20074;-78
2024/03/08 07:51:30;;;;;;;84.68;24.38;;;1.20;100.00;;;;;;5089929;28;20064;-77
2024/03/08 07:53:57;;;;;;;81.75;24.90;;;1.40;100.00;;;;;;5069314;28;20047;-78
2024/03/08 07:56:29;;;;;;;80.05;23.30;;;1.40;100.00;;;;;;5080673;28;20088;-79
2024/03/08 07:58:55;;;;;;;82.63;23.98;;;1.50;100.00;;;;;;5087476;28;20044;-76
2024/03/08 08:01:22;;;;;;;79.47;23.52;;;1.50;100.00;;;;;;5090136;28;20135;-78
2024/03/08 08:03:49;;;;;;;68.68;22.33;;;1.60;100.00;;;;;;5067281;28;20417;-76
2024/03/08 08:06:16;;;;;;;88.43;23.23;;;1.60;100.00;;;;;;5075140;28;20048;-72
2024/03/08 08:08:43;;;;;;;73.38;22.05;;;1.70;100.00;;;;;;5077851;28;20036;-72
2024/03/08 08:11:15;;;;;;;80.47;21.42;;;1.80;100.00;;;;;;5061365;28;20048;-74
2024/03/08 08:13:43;;;;;;;69.97;20.77;;;1.80;100.00;;;;;;5075047;28;20044;-75
2024/03/08 08:16:13;;;;;;;80.13;22.73;;;1.90;100.00;;;;;;5078195;28;20059;-74
2024/03/08 08:18:40;;;;;;;72.95;21.88;;;2.10;100.00;;;;;;5079107;28;20652;-75
2024/03/08 08:21:07;;;;;;;76.97;22.88;;;2.30;100.00;;;;;;5076128;28;20044;-76
2024/03/08 08:23:34;;;;;;;66.13;20.85;;;2.50;100.00;;;;;;5067904;28;20500;-75
2024/03/08 08:26:03;;;;;;;60.83;18.92;;;2.70;100.00;;;;;;5086238;28;20055;-86
2024/03/08 08:28:30;;;;;;;63.58;20.83;;;2.80;100.00;;;;;;5070909;28;20055;-86
2024/03/08 08:30:59;;;;;;;66.75;21.45;;;2.70;100.00;;;;;;5090016;28;20044;-87
2024/03/08 08:33:26;;;;;;;67.78;22.55;;;2.60;100.00;;;;;;5069725;28;20040;-89
2024/03/08 08:35:53;;;;;;;73.32;21.20;;;2.70;100.00;;;;;;5067406;28;20048;-88
2024/03/08 08:38:21;;;;;;;58.78;19.88;;;2.80;100.00;;;;;;5061650;28;20101;-88
2024/03/08 08:40:47;;;;;;;64.50;21.60;;;2.70;100.00;;;;;;5066935;28;20080;-87
2024/03/08 08:43:14;;;;;;;68.18;22.45;;;2.70;100.00;;;;;;5083715;28;20052;-89
2024/03/08 08:45:42;;;;;;;75.57;23.10;;;2.70;100.00;;;;;;5065701;28;20074;-88
2024/03/08 08:48:10;;;;;;;66.50;21.80;;;2.70;100.00;;;;;;5069382;28;20048;-88
2024/03/08 08:50:37;;;;;;;58.90;20.83;;;2.80;100.00;;;;;;5073275;28;20102;-87
2024/03/08 08:53:08;;;;;;;64.03;21.17;;;2.90;100.00;;;;;;5084191;28;20051;-87
2024/03/08 08:55:45;;;;;;;67.63;21.80;;;3.30;100.00;;;;;;5083587;28;20513;-86
2024/03/08 08:58:13;;;;;;;67.63;20.50;;;3.60;100.00;;;;;;5068300;28;20087;-87
2024/03/08 09:00:40;;;;;;;62.53;21.27;;;3.60;100.00;;;;;;5065202;28;20045;-88
2024/03/08 09:03:07;;;;;;;69.53;23.40;;;3.60;100.00;;;;;;5066653;28;20048;-89
2024/03/08 09:05:34;;;;;;;60.22;22.08;;;3.80;100.00;;;;;;5068453;28;20049;-89
2024/03/08 09:08:05;;;;;;;62.95;21.85;;;4.40;100.00;;;;;;5061026;28;20044;-89
2024/03/08 09:10:33;;;;;;;63.88;21.58;;;4.80;100.00;;;;;;5060657;28;20048;-89
2024/03/08 09:13:02;;;;;;;65.35;21.45;;;5.00;100.00;;;;;;5070944;28;20139;-87
2024/03/08 09:15:29;;;;;;;64.18;21.55;;;4.90;100.00;;;;;;5064415;28;20056;-87
2024/03/08 09:17:56;;;;;;;51.30;19.08;;;4.70;100.00;;;;;;5083252;28;20086;-87
2024/03/08 09:20:24;;;;;;;66.18;21.42;;;4.70;100.00;;;;;;5078568;28;20051;-86
2024/03/08 09:22:50;;;;;;;61.90;20.88;;;4.70;100.00;;;;;;5076981;28;20078;-85
2024/03/08 09:25:17;;;;;;;60.70;20.05;;;5.00;100.00;;;;;;5070658;28;20056;-85
2024/03/08 09:27:46;;;;;;;65.70;20.63;;;5.00;100.00;;;;;;5072827;28;20444;-81
2024/03/08 09:30:26;;;;;;;58.17;20.13;;;5.60;100.00;;;;;;5059897;28;20059;-88
2024/03/08 09:32:53;;;;;;;54.72;21.00;;;5.70;100.00;;;;;;5066340;28;20080;-87
2024/03/08 09:35:24;;;;;;;57.38;20.67;;;5.60;100.00;;;;;;5067972;28;20430;-87
2024/03/08 09:37:51;;;;;;;59.03;20.88;;;5.50;100.00;;;;;;5072130;28;20097;-87
2024/03/08 09:40:19;;;;;;;51.35;18.95;;;5.70;100.00;;;;;;5080690;28;20059;-87
2024/03/08 09:42:48;;;;;;;51.38;19.38;;;5.90;100.00;;;;;;5086267;28;20074;-87
2024/03/08 09:45:16;;;;;;;56.33;20.80;;;5.80;100.00;;;;;;5055867;28;20048;-88
2024/03/08 09:47:44;;;;;;;57.10;20.95;;;6.00;100.00;;;;;;5075934;28;20036;-89
2024/03/08 09:50:15;;;;;;;54.33;20.65;;;6.40;100.00;;;;;;5062256;28;20055;-87
2024/03/08 09:52:43;;;;;;;47.35;18.13;;;6.70;100.00;;;;;;5077740;28;20102;-88
2024/03/08 09:55:13;;;;;;;47.90;19.75;;;6.90;100.00;;;;;;5071879;28;20040;-88
2024/03/08 09:57:42;;;;;;;45.92;17.85;;;7.20;100.00;;;;;;5089678;28;20601;-85
2024/03/08 10:00:23;;;;;;;55.88;20.70;;;7.80;100.00;;;;;;5074655;28;20044;-85
2024/03/08 10:02:52;;;;;;;54.83;19.35;;;8.40;100.00;;;;;;5064111;28;20052;-83
2024/03/08 10:05:19;;;;;;;52.63;20.30;;;8.80;100.00;;;;;;5084524;28;20109;-84
2024/03/08 10:07:46;;;;;;;51.08;21.15;;;9.20;100.00;;;;;;5063699;28;20052;-84
2024/03/08 10:10:13;;;;;;;41.53;18.23;;;9.70;100.00;;;;;;5081655;28;20055;-83
2024/03/08 10:12:40;;;;;;;43.97;18.40;;;10.10;100.00;;;;;;5080507;28;20048;-84
2024/03/08 10:15:08;;;;;;;48.05;20.45;;;10.30;100.00;;;;;;5067000;28;20159;-83
2024/03/08 10:17:35;;;;;;;43.25;17.88;;;11.20;100.00;;;;;;5088131;28;20074;-85
2024/03/08 10:20:04;;;;;;;45.28;20.27;;;11.70;100.00;;;;;;5057639;28;20048;-84
2024/03/08 10:22:31;;;;;;;43.08;19.58;;;11.60;100.00;;;;;;5063026;28;20044;-84
2024/03/08 10:24:58;;;;;;;49.40;19.50;;;11.00;100.00;;;;;;5089005;28;20644;-82
2024/03/08 10:27:26;;;;;;;41.15;18.33;;;10.50;100.00;;;;;;5084067;28;20072;-84
2024/03/08 10:29:53;;;;;;;41.72;19.10;;;10.40;100.00;;;;;;5086860;28;20409;-85
2024/03/08 10:32:20;;;;;;;46.75;18.60;;;10.50;100.00;;;;;;5082341;28;20052;-85
2024/03/08 10:34:49;;;;;;;46.72;19.23;;;10.90;100.00;;;;;;5079886;28;20054;-85
2024/03/08 10:37:22;;;;;;;46.88;19.77;;;11.40;100.00;;;;;;5086930;28;20052;-85
2024/03/08 10:40:15;;;;;;;42.40;17.75;;;11.80;100.00;;;;;;5065082;28;20056;-84
2024/03/08 10:43:00;;;;;;;51.53;19.90;;;11.10;100.00;;;;;;5083388;28;20076;-84
2024/03/08 10:45:36;;;;;;;40.45;19.02;;;11.20;100.00;;;;;;5065704;28;20105;-84
2024/03/08 10:48:23;;;;;;;38.45;17.52;;;11.90;100.00;;;;;;5078023;28;20052;-83
2024/03/08 10:50:52;;;;;;;43.28;19.00;;;11.90;100.00;;;;;;5072838;28;20044;-83
2024/03/08 10:53:22;;;;;;;39.70;18.13;;;12.10;100.00;;;;;;5074331;28;20499;-84
2024/03/08 10:55:53;;;;;;;36.55;17.88;;;12.50;100.00;;;;;;5064533;28;20051;-82
2024/03/08 10:58:23;;;;;;;35.97;17.23;;;12.80;100.00;;;;;;5074045;28;20056;-80
2024/03/08 11:00:50;;;;;;;39.22;18.58;;;12.40;100.00;;;;;;5080436;28;20045;-82
2024/03/08 11:03:43;;;;;;;37.30;18.40;;;12.40;100.00;;;;;;5077334;28;20105;-83
2024/03/08 11:06:16;;;;;;;38.75;19.50;;;12.50;100.00;;;;;;5060896;28;20044;-85
2024/03/08 11:08:46;;;;;;;38.72;18.75;;;12.20;100.00;;;;;;5087007;28;20044;-83
2024/03/08 11:11:36;;;;;;;38.42;17.77;;;11.90;100.00;;;;;;5076847;28;20785;-82
2024/03/08 11:14:04;;;;;;;39.03;18.95;;;11.80;100.00;;;;;;5063166;28;20041;-81
2024/03/08 11:16:31;;;;;;;40.58;17.85;;;12.10;100.00;;;;;;5080937;28;20127;-81
2024/03/08 11:19:04;;;;;;;40.10;18.27;;;11.60;100.00;;;;;;5081387;28;20135;-81
2024/03/08 11:21:39;;;;;;;44.13;19.08;;;11.90;100.00;;;;;;5074251;28;20144;-82
2024/03/08 11:24:16;;;;;;;42.13;18.33;;;12.50;100.00;;;;;;5064461;28;20048;-82
2024/03/08 11:26:45;;;;;;;37.05;17.85;;;12.60;100.00;;;;;;5065318;28;20052;-82
2024/03/08 11:29:36;;;;;;;39.95;18.42;;;12.70;100.00;;;;;;5069705;28;20047;-81
2024/03/08 11:32:17;;;;;;;37.75;18.00;;;12.70;100.00;;;;;;5078590;28;20468;-81
2024/03/08 11:34:49;;;;;;;41.13;18.23;;;13.00;100.00;;;;;;5087308;28;20059;-81
2024/03/08 11:37:18;;;;;;;39.30;17.85;;;13.50;100.00;;;;;;5085862;28;20060;-81
2024/03/08 11:39:58;;;;;;;39.78;17.52;;;13.30;100.00;;;;;;5087314;28;21205;-82
2024/03/08 11:42:28;;;;;;;39.13;18.23;;;14.20;100.00;;;;;;5090105;28;20044;-82
2024/03/08 11:44:55;;;;;;;34.92;17.55;;;14.60;100.00;;;;;;5081092;28;20144;-82
2024/03/08 11:47:22;;;;;;;34.53;16.20;;;15.30;60.60;;;;;;5087096;28;20052;-82
2024/03/08 11:49:49;;;;;;;40.50;18.08;;;15.60;59.70;;;;;;5068253;28;20123;-82
2024/03/08 11:52:18;;;;;;;35.25;17.08;;;16.40;56.40;;;;;;5080161;28;20528;-82
2024/03/08 11:54:54;;;;;;;37.95;17.23;;;16.00;49.30;;;;;;5093312;28;20125;-82
2024/03/08 11:57:24;;;;;;;31.17;16.20;;;15.60;50.70;;;;;;5092793;28;20832;-82
2024/03/08 11:59:51;;;;;;;35.97;16.30;;;15.20;51.40;;;;;;5084332;28;20788;-82
2024/03/08 12:02:23;;;;;;;36.88;17.20;;;15.90;51.90;;;;;;5082369;28;20135;-82
2024/03/08 12:05:00;;;;;;;33.42;15.68;;;16.70;49.00;;;;;;5080129;28;20124;-81
2024/03/08 12:07:28;;;;;;;39.05;17.33;;;17.70;48.40;;;;;;5054855;28;20052;-81
2024/03/08 12:10:21;;;;;;;40.75;16.90;;;17.50;48.60;;;;;;5074035;28;20040;-80
2024/03/08 12:12:53;;;;;;;35.92;15.65;;;17.40;48.90;;;;;;5082040;28;20408;-81
2024/03/08 12:15:22;;;;;;;34.33;17.02;;;17.90;47.80;;;;;;5084329;28;20105;-82
2024/03/08 12:17:52;;;;;;;38.50;17.08;;;18.00;47.40;;;;;;5069413;28;20052;-82
2024/03/08 12:20:23;;;;;;;36.63;16.63;;;17.30;49.80;;;;;;5091625;28;20047;-81
2024/03/08 12:22:57;;;;;;;38.17;17.63;;;17.20;48.30;;;;;;5088405;28;20047;-82
2024/03/08 12:25:42;;;;;;;38.03;17.52;;;16.60;49.70;;;;;;5081737;28;20052;-81
2024/03/08 12:28:14;;;;;;;61.73;18.97;;;16.50;50.20;;;;;;5071448;28;20044;-82
2024/03/08 12:30:51;;;;;;;35.05;17.48;;;16.10;51.80;;;;;;5071350;28;20066;-82